This is the latest recevied weather packets stored in our database for station/object DC1SK-6. If no packets are shown the sender has not sent any weather packets the latest 10 day(s).
| Time | Temp. | Humidity | Pressure | Rain* | Wind** | Luminosity | Snow |
|---|---|---|---|---|---|---|---|
| 1777585724 | 6.67° C | 78% | - | 0 mm | - | 0 W/m² | - |
| 1777585209 | 6.67° C | 77% | - | 0 mm | - | 0 W/m² | - |
| 1777584704 | 6.67° C | 78% | - | 0 mm | - | 0 W/m² | - |
| 1777584204 | 6.67° C | 78% | - | 0 mm | - | 0 W/m² | - |
| 1777583709 | 6.67° C | 77% | - | 0 mm | - | 0 W/m² | - |
| 1777583219 | 6.67° C | 77% | - | 0 mm | - | 0 W/m² | - |
| 1777582709 | 7.22° C | 75% | - | 0 mm | - | 0 W/m² | - |
| 1777582204 | 7.22° C | 76% | - | 0 mm | - | 0 W/m² | - |
| 1777581709 | 7.22° C | 76% | - | 0 mm | - | 0 W/m² | - |
| 1777581144 | 7.78° C | 74% | - | 0 mm | - | 0 W/m² | - |
| 1777580589 | 7.78° C | 74% | - | 0 mm | - | 0 W/m² | - |
| 1777580089 | 7.22° C | 75% | - | 0 mm | - | 0 W/m² | - |
| 1777579559 | 7.78° C | 74% | - | 0 mm | - | 0 W/m² | - |
| 1777579039 | 7.78° C | 74% | - | 0 mm | - | 0 W/m² | - |
| 1777578557 | 8.33° C | 73% | - | 0 mm | - | 0 W/m² | - |
| 1777578014 | 8.89° C | 71% | - | 0 mm | - | 0 W/m² | - |
| 1777577489 | 8.89° C | 70% | - | 0 mm | - | 0 W/m² | - |
| 1777576959 | 9.44° C | 71% | - | 0 mm | - | 0 W/m² | - |
| 1777576364 | 9.44° C | 71% | - | 0 mm | - | 0 W/m² | - |
| 1777575774 | 10.56° C | 67% | - | 0 mm | - | 0 W/m² | - |
| 1777575244 | 11.11° C | 65% | - | 0 mm | - | 0 W/m² | - |
| 1777574759 | 11.67° C | 63% | - | 0 mm | - | 0 W/m² | - |
| 1777574219 | 12.22° C | 60% | - | 0 mm | - | 0 W/m² | - |
| 1777573719 | 12.78° C | 56% | - | 0 mm | - | 3 W/m² | - |
| 1777573154 | 13.33° C | 55% | - | 0 mm | - | 6 W/m² | - |
* Rain latest hour (hover to see other rain measurements)
** Current wind speed in m/s (hover to see current wind gust speed)